Terminal Aerodrome Forecast
Issued by NWS

Home | Current Version | Previous Version | Text Only | Print | Product List | Glossary Off
Versions: 1 2 3 4 5 6 7 8 9 10 11 12 13 14 15

000
FTUS43 KMPX 282321
TAFRWF
TAF
KRWF 282321Z 2900/2924 04004KT P6SM SCT050
     FM290300 VRB03KT P6SM SKC
     FM291500 07006KT P6SM FEW050 SCT250=

USA.gov is the U.S. government's official web portal to all federal, state and local government web resources and services.